Cogswell, ND

2:08 AM CDT on October 24, 2014 (GMT -0500)
Gwinner-melroe | Change Station
CLOSE
Current Station
Airport
Location: Gwinner,
Elevation: 1266 ft
Nearby Weather Stations

Elev 1266 ft 46.22 °N, 97.64 °W | Updated 13 minutes ago

Clear
Clear
48 °F
Feels Like 48 °F
N
9
Wind Variable Wind from SW

Today
High -- | Low -- °F
--% Chance of Precip.
Yesterday
High -- | Low -- °F
Precip. -- in
8:00 AM 6:29 PM
New Moon, 0% visible
Pressure 29.84 in
Visibility 10.0 miles
Clouds Clear
Dew Point 45 °F
Humidity 87%
Rainfall 0.00 in
Snow Depth Not available.
UV 0 out of 12
Pollen 1.00 out of 12
Air Quality Not available.
Flu Activity Local Activity
METAR KGWR 240655Z AUTO 23008KT 10SM CLR 09/07 A2984 RMK A01 P000

More Conditions Fewer Conditions

Pressure 29.84 in
Visibility 10.0 miles
Clouds Clear
Dew Point 45 °F
Humidity 87%
Rainfall 0.00 in
Snow Depth Not available.
UV 0 out of 12
Pollen 1.00 out of 12
Air Quality Not available.
Flu Activity Local Activity
METAR KGWR 240655Z AUTO 23008KT 10SM CLR 09/07 A2984 RMK A01 P000

More Conditions Fewer Conditions

10-Day Weather Forecast

Almanac

Astronomy

Oct. 24, 2014 Rise Set
Actual Time 8:00 AM CDT 6:29 PM CDT
Civil Twilight 7:29 AM CDT 7:00 PM CDT
Nautical Twilight 6:55 AM CDT 7:34 PM CDT
Astronomical Twilight 6:20 AM CDT 8:09 PM CDT
Moon 8:42 AM CDT 7:07 PM CDT
Length of Visible Light 11h 30m
Length of Day
10h 28m
Tomorrow will be 3m 2s shorter.
New Moon, 0% of the Moon is Illuminated
Today
New Moon
Oct 30
First Quarter
Nov 6
Full
Nov 14
Last Quarter
Nov 22
New

Today's Extremes

State Highs State Lows

Community

WunderPhotos

Upload Photos

1,764,510 photos uploaded!

WunderBlogs® & News

Nearby

Snow Depth

Station Depth Elevation
No new snow has been reported.

Earthquake Activity

City Distance Mag. Time & Date
No recent earthquake activity has been reported nearby.
Minimum magnitude displayed is 2.5.

Coastal Water Temperatures

Place Temperature
No Stations Reporting

Nearby Weather Stations